Flight Track Log - Related Links

Times and Time Zones

All times are in EDT time to prevent confusion due to time zone crossing. See the XOJ717 flight status page for this flight to view local times or setup timezone preferences in your user account.

Time Position Orientation Groundspeed Altitude Reporting Facility
EDT Latitude Longitude Course Direction KTS MPH feet Rate Location/Type
Sat 03:14:11 PM 43.0994 -77.6942 223° Southwest 190 219 1,300  Level Cleveland Center
Sat 03:15:00 PM 43.0728 -77.7278 223° Southwest 214 246 3,000 2,582 Climbing Cleveland Center
Sat 03:15:30 PM 43.0736 -77.7858 271° West 229 264 4,700 2,903 Climbing Cleveland Center
Sat 03:16:02 PM 43.0728 -77.8375 269° West 242 278 6,000 2,426 Climbing Cleveland Center
Sat 03:17:04 PM 43.0911 -77.9386 284° West 277 319 8,500 2,304 Climbing Cleveland Center
Sat 03:18:07 PM 43.1139 -78.0431 287° West 288 331 10,800 1,968 Climbing Cleveland Center
Sat 03:19:09 PM 43.1394 -78.1614 287° West 322 371 12,600 1,984 Climbing Cleveland Center
Sat 03:20:11 PM 43.1681 -78.2878 287° West 345 397 14,900 2,371 Climbing Cleveland Center
Sat 03:21:13 PM 43.2011 -78.4419 286° West 350 403 17,500 2,081 Climbing Cleveland Center
Sat 03:22:15 PM 43.2056 -78.5808 273° West 369 425 19,200 1,645 Climbing Cleveland Center
Sat 03:23:17 PM 43.1969 -78.7217 265° West 373 429 20,900 1,645 Climbing Cleveland Center
Sat 03:24:19 PM 43.1889 -78.8681 266° West 382 440 22,600 1,597 Climbing Cleveland Center
Sat 03:25:21 PM 43.1789 -79.0175 265° West 392 451 24,200 1,515 Climbing Cleveland Center
Sat 03:25:58 PM 43.1739 -79.1083 266° West 393 452 25,100 1,558 Climbing Cleveland Center
Sat 03:26:38 PM 43.1667 -79.2167 265° West 410 472 26,200 1,500 Climbing Toronto Center
Sat 03:27:38 PM 43.1500 -79.3833 262° West 420 483 27,600 1,400 Climbing Toronto Center
Sat 03:28:38 PM 43.1333 -79.5500 262° West 430 495 29,000 1,350 Climbing Toronto Center
Sat 03:29:38 PM 43.1333 -79.7000 270° West 440 506 30,300 1,300 Climbing Toronto Center
Sat 03:30:38 PM 43.1167 -79.8667 262° West 440 506 31,600 1,400 Climbing Toronto Center
Sat 03:31:38 PM 43.0667 -80.0500 250° West 450 518 33,100 1,400 Climbing Toronto Center
Sat 03:32:38 PM 43.0167 -80.2000 246° West 450 518 34,400 1,300 Climbing Toronto Center
Sat 03:33:38 PM 42.9833 -80.3667 255° West 460 529 35,700 1,200 Climbing Toronto Center
Sat 03:34:38 PM 42.9333 -80.5167 246° West 460 529 36,800 1,200 Climbing Toronto Center
Sat 03:35:38 PM 42.9000 -80.7000 256° West 460 529 38,100 1,200 Climbing Toronto Center
Sat 03:36:38 PM 42.8833 -80.8667 262° West 450 518 39,200 1,050 Climbing Toronto Center
Sat 03:37:38 PM 42.9333 -81.0167 295° West 440 506 40,200 900 Climbing Toronto Center
Sat 03:38:38 PM 42.9833 -81.1833 292° West 450 518 41,000 750 Climbing Toronto Center
Sat 03:39:38 PM 43.0167 -81.3500 285° West 450 518 41,700 600 Climbing Toronto Center
Sat 03:40:38 PM 43.0667 -81.5000 295° West 430 495 42,200 500 Climbing Toronto Center
Sat 03:41:38 PM 43.1000 -81.6667 285° West 440 506 42,700 400 Climbing Toronto Center
Sat 03:42:38 PM 43.1500 -81.8000 297° West 440 506 43,000 150 Climbing Toronto Center
Sat 03:43:38 PM 43.1667 -81.9667 278° West 440 506 43,000  Level Toronto Center
Sat 03:44:38 PM 43.2167 -82.1333 292° West 450 518 43,000  Level Toronto Center
Sat 03:45:38 PM 43.2667 -82.2833 295° West 460 529 43,000  Level Toronto Center
Sat 03:46:38 PM 43.3000 -82.4667 284° West 460 529 43,000  Level Toronto Center
Sat 03:47:38 PM 43.3333 -82.6333 285° West 460 529 43,000  Level Toronto Center
Sat 03:48:42 PM 43.3969 -82.8083 297° West 458 527 43,000  Level Cleveland Center
Sat 03:49:44 PM 43.4369 -82.9753 288° West 458 527 43,000  Level Cleveland Center
Sat 03:50:46 PM 43.4772 -83.1408 289° West 459 528 43,000  Level Cleveland Center
Sat 03:51:48 PM 43.5169 -83.3069 288° West 459 528 43,000  Level Cleveland Center
Sat 03:52:50 PM 43.5639 -83.5069 288° West 459 528 43,000  Level Cleveland Center
Sat 03:53:52 PM 43.6028 -83.6722 288° West 459 528 43,000 48 Level Cleveland Center
Sat 03:54:55 PM 43.6417 -83.8392 288° West 458 527 43,100 240 Climbing Cleveland Center
Sat 03:55:57 PM 43.6836 -84.0197 288° West 458 527 43,500 387 Climbing Cleveland Center
Sat 03:56:59 PM 43.7206 -84.1836 287° West 454 522 43,900 290 Climbing Cleveland Center
Sat 03:58:01 PM 43.7586 -84.3467 288° West 451 519 44,100 242 Climbing Cleveland Center
Sat 03:59:03 PM 43.7950 -84.5106 287° West 450 518 44,400 263 Climbing Cleveland Center
Sat 03:59:55 PM 43.8314 -84.6731 287° West 450 518 44,600 211 Climbing Minneapolis Center
Sat 04:00:57 PM 43.8675 -84.8369 287° West 449 517 44,800 194 Climbing Minneapolis Center
Sat 04:01:59 PM 43.9036 -84.9997 287° West 448 516 45,000 97 Climbing Minneapolis Center
Sat 04:03:01 PM 43.9400 -85.1608 287° West 444 511 45,000  Level Minneapolis Center
Sat 04:04:03 PM 43.9753 -85.3261 287° West 445 512 45,000  Level Minneapolis Center
Sat 04:05:04 PM 44.0117 -85.4897 287° West 445 512 45,000  Level Minneapolis Center
Sat 04:06:06 PM 44.0542 -85.6894 287° West 447 514 45,000  Level Minneapolis Center
Sat 04:07:08 PM 44.0886 -85.8558 286° West 448 516 45,000  Level Minneapolis Center
Sat 04:08:10 PM 44.1236 -86.0214 286° West 451 519 45,000  Level Minneapolis Center
Sat 04:09:12 PM 44.1583 -86.1903 286° West 453 521 45,000  Level Minneapolis Center
Sat 04:10:13 PM 44.1928 -86.3583 286° West 453 521 45,000  Level Minneapolis Center
Sat 04:11:15 PM 44.2256 -86.5278 285° West 453 521 45,000  Level Minneapolis Center
Sat 04:12:17 PM 44.2525 -86.6986 282° West 452 520 45,000  Level Minneapolis Center
Sat 04:13:19 PM 44.2839 -86.9053 282° West 452 520 45,000  Level Minneapolis Center
Sat 04:14:20 PM 44.3097 -87.0761 282° West 452 520 45,000  Level Minneapolis Center
Sat 04:15:22 PM 44.3336 -87.2347 282° West 448 516 45,000  Level Minneapolis Center
Sat 04:16:24 PM 44.3583 -87.4042 282° West 448 516 45,000  Level Minneapolis Center
Sat 04:17:26 PM 44.3828 -87.5739 281° West 448 516 45,000  Level Minneapolis Center
Sat 04:18:27 PM 44.4128 -87.7781 282° West 448 516 45,000  Level Minneapolis Center
Sat 04:19:29 PM 44.4375 -87.9492 281° West 449 517 45,000  Level Minneapolis Center
Sat 04:20:31 PM 44.4614 -88.1169 281° West 448 516 45,000  Level Minneapolis Center
Sat 04:21:33 PM 44.4847 -88.2883 281° West 448 516 45,000  Level Minneapolis Center
Sat 04:22:34 PM 44.5078 -88.4583 281° West 448 516 45,000  Level Minneapolis Center
Sat 04:23:36 PM 44.5308 -88.6278 281° West 447 514 45,000  Level Minneapolis Center
Sat 04:24:38 PM 44.5594 -88.8331 281° West 447 514 45,000  Level Minneapolis Center
Sat 04:25:40 PM 44.5811 -89.0044 280° West 448 516 45,000  Level Minneapolis Center
Sat 04:26:42 PM 44.6042 -89.1767 281° West 449 517 45,000  Level Minneapolis Center
Sat 04:27:43 PM 44.6261 -89.3483 280° West 449 517 45,000  Level Minneapolis Center
Sat 04:28:45 PM 44.6489 -89.5214 281° West 449 517 45,000  Level Minneapolis Center
Sat 04:29:47 PM 44.6700 -89.6942 280° West 450 518 45,000  Level Minneapolis Center
Sat 04:30:49 PM 44.6961 -89.9011 280° West 450 518 45,000  Level Minneapolis Center
Sat 04:31:51 PM 44.7172 -90.0731 280° West 450 518 45,000  Level Minneapolis Center
Sat 04:32:53 PM 44.7386 -90.2467 280° West 450 518 45,000  Level Minneapolis Center
Sat 04:33:54 PM 44.7583 -90.4197 279° West 450 518 45,000  Level Minneapolis Center
Sat 04:34:56 PM 44.7803 -90.6047 280° West 449 517 45,000  Level Minneapolis Center
Sat 04:35:58 PM 44.8000 -90.7781 279° West 450 518 45,000  Level Minneapolis Center
Sat 04:37:00 PM 44.8206 -90.9511 280° West 450 518 45,000  Level Minneapolis Center
Sat 04:38:02 PM 44.8397 -91.1253 279° West 450 518 45,000  Level Minneapolis Center
Sat 04:39:03 PM 44.8589 -91.3000 279° West 450 518 45,000  Level Minneapolis Center
Sat 04:40:05 PM 44.8817 -91.5094 279° West 450 518 45,000  Level Minneapolis Center
Sat 04:41:07 PM 44.8997 -91.6847 278° West 451 519 45,000  Level Minneapolis Center
Sat 04:42:09 PM 44.9197 -91.8581 279° West 451 519 45,000  Level Minneapolis Center
Sat 04:43:11 PM 44.9375 -92.0325 278° West 451 519 45,000  Level Minneapolis Center
Sat 04:44:12 PM 44.9556 -92.2064 278° West 451 519 45,000  Level Minneapolis Center
Sat 04:45:14 PM 44.9742 -92.3806 279° West 451 519 45,000  Level Minneapolis Center
Sat 04:46:16 PM 44.9956 -92.5900 278° West 451 519 45,000  Level Minneapolis Center
Sat 04:47:18 PM 45.0133 -92.7622 278° West 450 518 45,000  Level Minneapolis Center
Sat 04:48:20 PM 45.0308 -92.9336 278° West 446 513 45,000  Level Minneapolis Center
Sat 04:49:22 PM 45.0478 -93.1069 278° West 449 517 45,000  Level Minneapolis Center
Sat 04:50:24 PM 45.0403 -93.2828 267° West 458 527 45,000  Level Minneapolis Center
Sat 04:51:25 PM 45.0217 -93.4897 263° West 452 520 45,000  Level Minneapolis Center
Sat 04:52:27 PM 45.0075 -93.6644 264° West 452 520 45,000  Level Minneapolis Center
Sat 04:53:29 PM 44.9919 -93.8375 263° West 452 520 45,000  Level Minneapolis Center
Sat 04:54:31 PM 44.9772 -94.0125 263° West 452 520 45,000  Level Minneapolis Center
Sat 04:55:33 PM 44.9617 -94.1864 263° West 451 519 45,000  Level Minneapolis Center
Sat 04:56:35 PM 44.9431 -94.3933 263° West 449 517 45,000  Level Minneapolis Center
Sat 04:57:37 PM 44.9269 -94.5681 263° West 449 517 45,000  Level Minneapolis Center
Sat 04:58:39 PM 44.9069 -94.7211 260° West 449 517 45,000  Level Minneapolis Center
Sat 04:59:41 PM 44.8647 -94.9222 254° West 449 517 45,000  Level Minneapolis Center
Sat 05:00:43 PM 44.8297 -95.0925 254° West 449 517 45,000  Level Minneapolis Center
Sat 05:01:45 PM 44.7992 -95.2619 256° West 449 517 45,000  Level Minneapolis Center
Sat 05:02:47 PM 44.7669 -95.4325 255° West 451 519 45,000  Level Minneapolis Center
Sat 05:03:49 PM 44.7364 -95.6025 256° West 451 519 45,000  Level Minneapolis Center
Sat 05:04:51 PM 44.7008 -95.8083 256° West 453 521 45,000  Level Minneapolis Center
Sat 05:05:53 PM 44.6719 -95.9792 257° West 452 520 45,000  Level Minneapolis Center
Sat 05:06:54 PM 44.6411 -96.1506 256° West 454 522 45,000  Level Minneapolis Center
Sat 05:07:56 PM 44.6125 -96.3219 257° West 455 524 45,000  Level Minneapolis Center
Sat 05:08:58 PM 44.5839 -96.4922 257° West 455 524 45,000  Level Minneapolis Center
Sat 05:10:00 PM 44.5481 -96.6997 256° West 457 526 45,000  Level Minneapolis Center
Sat 05:11:02 PM 44.5247 -96.8719 259° West 458 527 45,000  Level Minneapolis Center
Sat 05:12:04 PM 44.5103 -97.0464 263° West 455 524 45,000  Level Minneapolis Center
Sat 05:13:06 PM 44.4897 -97.2225 261° West 457 526 45,000  Level Minneapolis Center
Sat 05:14:08 PM 44.4689 -97.3969 261° West 457 526 45,000  Level Minneapolis Center
Sat 05:15:10 PM 44.4489 -97.5722 261° West 457 526 45,000  Level Minneapolis Center
Sat 05:16:11 PM 44.4244 -97.7836 261° West 457 526 45,000  Level Minneapolis Center
Sat 05:17:13 PM 44.4039 -97.9594 261° West 458 527 45,000  Level Minneapolis Center
Sat 05:18:15 PM 44.3833 -98.1378 261° West 460 529 45,000  Level Minneapolis Center
Sat 05:19:17 PM 44.3622 -98.3136 261° West 460 529 45,000  Level Minneapolis Center
Sat 05:20:19 PM 44.3428 -98.4886 261° West 461 531 45,000  Level Minneapolis Center
Sat 05:21:20 PM 44.3200 -98.6656 260° West 462 532 45,000  Level Minneapolis Center
Sat 05:22:22 PM 44.2989 -98.8400 260° West 460 529 45,000  Level Minneapolis Center
Sat 05:23:24 PM 44.2717 -99.0531 260° West 460 529 45,000  Level Minneapolis Center
Sat 05:24:26 PM 44.2492 -99.2308 260° West 461 531 45,000  Level Minneapolis Center
Sat 05:25:27 PM 44.2253 -99.4083 259° West 463 533 45,000  Level Minneapolis Center
Sat 05:26:29 PM 44.2008 -99.5864 259° West 465 535 45,000  Level Minneapolis Center
Sat 05:27:31 PM 44.1783 -99.7639 260° West 465 535 45,000  Level Minneapolis Center
Sat 05:28:33 PM 44.1533 -99.9400 259° West 465 535 45,000 48 Level Minneapolis Center
Sat 05:29:35 PM 44.1306 -100.1167 260° West 464 534 45,100 146 Climbing Minneapolis Center
Sat 05:30:36 PM 44.1056 -100.2917 259° West 462 532 45,300 195 Climbing Minneapolis Center
Sat 05:31:38 PM 44.0769 -100.5017 259° West 462 532 45,500 194 Climbing Minneapolis Center
Sat 05:32:40 PM 44.0519 -100.6753 259° West 461 531 45,700 194 Climbing Minneapolis Center
Sat 05:33:42 PM 44.0278 -100.8506 259° West 461 531 45,900 146 Climbing Minneapolis Center
Sat 05:34:43 PM 44.0028 -101.0242 259° West 460 529 46,000 146 Climbing Minneapolis Center
Sat 05:35:45 PM 43.9764 -101.1961 258° West 460 529 46,200 194 Climbing Minneapolis Center
Sat 05:36:47 PM 43.9500 -101.3667 258° West 458 527 46,400 195 Climbing Minneapolis Center
Sat 05:37:48 PM 43.9253 -101.5406 259° West 458 527 46,600 195 Climbing Minneapolis Center
Sat 05:38:50 PM 43.8983 -101.7142 258° West 458 527 46,800 194 Climbing Minneapolis Center
Sat 05:39:52 PM 43.8669 -101.9217 258° West 458 527 47,000 97 Climbing Minneapolis Center
Sat 05:40:54 PM 43.8406 -102.0947 258° West 458 527 47,000  Level Minneapolis Center
Sat 05:41:55 PM 43.8125 -102.2686 257° West 458 527 47,000  Level Minneapolis Center
Sat 05:42:57 PM 43.7850 -102.4428 258° West 459 528 47,000  Level Minneapolis Center
Sat 05:43:59 PM 43.7572 -102.6175 258° West 460 529 47,000  Level Minneapolis Center
Sat 05:45:17 PM 43.7206 -102.8428 257° West 465 535 47,000  Level Denver Center
Sat 05:46:18 PM 43.6897 -103.0381 258° West 465 535 47,000  Level Denver Center
Sat 05:47:20 PM 43.6617 -103.2050 257° West 466 536 47,000  Level Denver Center
Sat 05:48:22 PM 43.6294 -103.4006 257° West 466 536 47,000  Level Denver Center
Sat 05:49:23 PM 43.6017 -103.5672 257° West 466 536 47,000  Level Denver Center
Sat 05:50:25 PM 43.5731 -103.7317 257° West 466 536 47,000  Level Denver Center
Sat 05:51:27 PM 43.5408 -103.9244 257° West 466 536 47,000  Level Denver Center
Sat 05:52:28 PM 43.5125 -104.0897 257° West 465 535 47,000  Level Denver Center
Sat 05:53:30 PM 43.4783 -104.2789 256° West 461 531 47,000  Level Denver Center
Sat 05:54:32 PM 43.4506 -104.4431 257° West 461 531 47,000  Level Denver Center
Sat 05:55:34 PM 43.4164 -104.6314 256° West 461 531 47,000  Level Denver Center
Sat 05:56:35 PM 43.3867 -104.7956 256° West 461 531 47,000  Level Denver Center
Sat 05:57:37 PM 43.3522 -104.9858 256° West 461 531 47,000  Level Denver Center
Sat 05:58:39 PM 43.3217 -105.1489 256° West 461 531 47,000  Level Denver Center
Sat 05:59:40 PM 43.2867 -105.3406 256° West 462 532 47,000  Level Denver Center
Sat 06:00:42 PM 43.2536 -105.5061 255° West 467 537 47,000  Level Denver Center
Sat 06:01:44 PM 43.2225 -105.6697 255° West 467 537 47,000  Level Denver Center
Sat 06:02:46 PM 43.1856 -105.8622 255° West 467 537 47,000  Level Denver Center
Sat 06:03:47 PM 43.1525 -106.0267 255° West 468 539 47,000  Level Denver Center
Sat 06:04:49 PM 43.1161 -106.2183 255° West 468 539 47,000  Level Denver Center
Sat 06:05:51 PM 43.0828 -106.3844 255° West 469 540 47,000  Level Denver Center
Sat 06:06:52 PM 43.0439 -106.5764 255° West 469 540 47,000  Level Denver Center
Sat 06:07:54 PM 43.0122 -106.7419 255° West 469 540 47,000  Level Denver Center
Sat 06:08:56 PM 42.9725 -106.9342 254° West 470 541 47,000  Level Denver Center
Sat 06:09:57 PM 42.9397 -107.0983 255° West 470 541 47,000  Level Denver Center
Sat 06:10:46 PM 42.9128 -107.2381 255° West 477 549 47,000  Level Salt Lake Center
Sat 06:11:47 PM 42.8719 -107.4261 254° West 469 540 47,000  Level Salt Lake Center
Sat 06:12:49 PM 42.8364 -107.5886 253° West 469 540 47,000  Level Salt Lake Center
Sat 06:13:50 PM 42.8031 -107.7547 255° West 470 541 47,000  Level Salt Lake Center
Sat 06:14:52 PM 42.7628 -107.9439 254° West 471 542 47,000  Level Salt Lake Center
Sat 06:15:53 PM 42.7272 -108.1064 253° West 471 542 47,000  Level Salt Lake Center
Sat 06:16:55 PM 42.6881 -108.2978 255° West 471 542 47,000  Level Salt Lake Center
Sat 06:17:56 PM 42.6525 -108.4586 253° West 471 542 47,000  Level Salt Lake Center
Sat 06:18:58 PM 42.6106 -108.6467 253° West 470 541 47,000  Level Salt Lake Center
Sat 06:20:00 PM 42.5758 -108.8078 254° West 470 541 47,000  Level Salt Lake Center
Sat 06:21:01 PM 42.5397 -108.9669 253° West 467 537 47,000  Level Salt Lake Center
Sat 06:22:03 PM 42.4978 -109.1564 253° West 468 539 47,000  Level Salt Lake Center
Sat 06:23:04 PM 42.4611 -109.3172 253° West 469 540 47,000  Level Salt Lake Center
Sat 06:24:06 PM 42.4194 -109.5056 253° West 469 540 47,000  Level Salt Lake Center
Sat 06:25:07 PM 42.3814 -109.6661 252° West 470 541 47,000  Level Salt Lake Center
Sat 06:26:09 PM 42.3381 -109.8536 253° West 470 541 47,000  Level Salt Lake Center
Sat 06:27:11 PM 42.3014 -110.0144 253° West 470 541 47,000  Level Salt Lake Center
Sat 06:28:12 PM 42.2619 -110.1756 252° West 472 543 47,000  Level Salt Lake Center
Sat 06:29:14 PM 42.2192 -110.3622 253° West 469 540 47,000  Level Salt Lake Center
Sat 06:30:15 PM 42.1808 -110.5244 252° West 473 544 47,000  Level Salt Lake Center
Sat 06:31:17 PM 42.1344 -110.7128 252° West 474 545 47,000  Level Salt Lake Center
Sat 06:32:18 PM 42.0950 -110.8756 252° West 477 549 47,000  Level Salt Lake Center
Sat 06:33:20 PM 42.0519 -111.0519 252° West 477 549 47,000  Level Salt Lake Center
Sat 06:34:21 PM 42.0103 -111.2208 252° West 477 549 47,000  Level Salt Lake Center
Sat 06:35:23 PM 41.9678 -111.3903 251° West 478 550 47,000  Level Salt Lake Center
Sat 06:36:25 PM 41.9267 -111.5583 252° West 478 550 47,000  Level Salt Lake Center
Sat 06:37:26 PM 41.8756 -111.7603 251° West 478 550 47,000  Level Salt Lake Center
Sat 06:38:28 PM 41.8331 -111.9286 251° West 478 550 47,000  Level Salt Lake Center
Sat 06:39:29 PM 41.7889 -112.0961 251° West 478 550 47,000  Level Salt Lake Center
Sat 06:40:31 PM 41.7453 -112.2639 251° West 479 551 47,000  Level Salt Lake Center
Sat 06:41:33 PM 41.7022 -112.4297 251° West 478 550 47,000  Level Salt Lake Center
Sat 06:42:34 PM 41.6592 -112.5947 251° West 475 547 47,000  Level Salt Lake Center
Sat 06:43:36 PM 41.6083 -112.7908 251° West 471 542 47,000  Level Salt Lake Center
Sat 06:44:38 PM 41.5644 -112.9553 250° West 471 542 47,000  Level Salt Lake Center
Sat 06:45:39 PM 41.5211 -113.1192 251° West 471 542 47,000  Level Salt Lake Center
Sat 06:46:41 PM 41.4778 -113.2833 251° West 471 542 47,000  Level Salt Lake Center
Sat 06:47:43 PM 41.4325 -113.4472 250° West 472 543 47,000  Level Salt Lake Center
Sat 06:48:44 PM 41.3883 -113.6114 250° West 472 543 47,000  Level Salt Lake Center
Sat 06:49:46 PM 41.3439 -113.7753 250° West 472 543 47,000  Level Salt Lake Center
Sat 06:50:47 PM 41.2897 -113.9725 250° West 472 543 47,000  Level Salt Lake Center
Sat 06:51:49 PM 41.2439 -114.1367 250° West 472 543 47,000  Level Salt Lake Center
Sat 06:52:51 PM 41.1978 -114.3017 250° West 474 545 47,000  Level Salt Lake Center
Sat 06:53:52 PM 41.1519 -114.4664 250° West 476 548 47,000  Level Salt Lake Center
Sat 06:54:54 PM 41.1044 -114.6314 249° West 478 550 47,000  Level Salt Lake Center
Sat 06:55:56 PM 41.0514 -114.8194 250° West 478 550 47,000  Level Salt Lake Center
Sat 06:56:57 PM 41.0047 -114.9831 249° West 478 550 47,000  Level Salt Lake Center
Sat 06:57:59 PM 40.9558 -115.1436 248° West 473 544 47,000  Level Salt Lake Center
Sat 06:59:01 PM 40.9075 -115.3064 249° West 473 544 47,000  Level Salt Lake Center
Sat 07:00:03 PM 40.8583 -115.4658 248° West 473 544 47,000  Level Salt Lake Center
Sat 07:01:04 PM 40.8133 -115.6281 250° West 472 543 47,000  Level Salt Lake Center
Sat 07:02:06 PM 40.7658 -115.7894 249° West 473 544 47,000  Level Salt Lake Center
Sat 07:03:08 PM 40.7083 -115.9817 249° West 472 543 47,000  Level Salt Lake Center
Sat 07:04:09 PM 40.6597 -116.1425 248° West 472 543 47,000  Level Salt Lake Center
Sat 07:05:11 PM 40.6111 -116.3039 248° West 472 543 47,000  Level Salt Lake Center
Sat 07:06:13 PM 40.5625 -116.4639 248° West 473 544 47,000  Level Salt Lake Center
Sat 07:07:14 PM 40.5142 -116.6247 248° West 474 545 47,000  Level Salt Lake Center
Sat 07:08:16 PM 40.4572 -116.8067 248° West 474 545 47,000  Level Salt Lake Center
Sat 07:09:18 PM 40.4075 -116.9644 248° West 474 545 47,000  Level Salt Lake Center
Sat 07:10:19 PM 40.3600 -117.1231 249° West 475 547 47,000  Level Salt Lake Center
Sat 07:11:29 PM 40.3011 -117.3125 248° West 477 549 47,000  Level Oakland Center
Sat 07:12:23 PM 40.2597 -117.4411 247° West 476 548 47,000  Level Salt Lake Center
Sat 07:13:24 PM 40.2000 -117.6306 248° West 476 548 47,000  Level Salt Lake Center
Sat 07:14:26 PM 40.1500 -117.7883 248° West 475 547 47,000  Level Salt Lake Center
Sat 07:15:34 PM 40.0969 -117.9519 247° West 473 544 47,000  Level Oakland Center
Sat 07:16:35 PM 40.0489 -118.1086 248° West 470 541 47,000  Level Oakland Center
Sat 07:17:36 PM 40.0111 -118.2714 253° West 473 544 47,000  Level Oakland Center
Sat 07:18:37 PM 39.9658 -118.4656 253° West 474 545 47,000  Level Oakland Center
Sat 07:19:38 PM 39.9294 -118.6294 254° West 475 547 47,000  Level Oakland Center
Sat 07:20:40 PM 39.8906 -118.7903 253° West 475 547 47,000  Level Oakland Center
Sat 07:21:41 PM 39.8525 -118.9486 253° West 468 539 47,000  Level Oakland Center
Sat 07:22:42 PM 39.8136 -119.1092 253° West 467 537 47,000  Level Oakland Center
Sat 07:23:43 PM 39.7742 -119.2714 252° West 470 541 47,000  Level Oakland Center
Sat 07:24:45 PM 39.7350 -119.4322 252° West 471 542 47,000  Level Oakland Center
Sat 07:25:46 PM 39.6883 -119.6278 253° West 472 543 47,000  Level Oakland Center
Sat 07:26:47 PM 39.6483 -119.7906 252° West 472 543 47,000  Level Oakland Center
Sat 07:27:48 PM 39.6086 -119.9517 252° West 473 544 47,000  Level Oakland Center
Sat 07:28:49 PM 39.5675 -120.1153 252° West 474 545 47,000  Level Oakland Center
Sat 07:29:51 PM 39.5278 -120.2689 252° West 473 544 47,000  Level Oakland Center
Sat 07:30:52 PM 39.4881 -120.4314 252° West 474 545 47,000  Level Oakland Center
Sat 07:31:53 PM 39.4458 -120.5942 251° West 474 545 47,000  Level Oakland Center
Sat 07:32:54 PM 39.4053 -120.7564 252° West 476 548 47,000  Level Oakland Center
Sat 07:33:55 PM 39.3544 -120.9514 251° West 476 548 47,000  Level Oakland Center
Sat 07:34:57 PM 39.3003 -121.1044 245° Southwest 471 542 47,000  Level Oakland Center
Sat 07:35:58 PM 39.2147 -121.2350 230° Southwest 475 547 47,000  Level Oakland Center
Sat 07:36:59 PM 39.1283 -121.3647 229° Southwest 475 547 47,000 -197 Level Oakland Center
Sat 07:38:00 PM 39.0417 -121.4917 229° Southwest 475 547 46,600 -1,122 Descending Oakland Center
Sat 07:39:02 PM 38.9522 -121.6200 228° Southwest 481 554 44,700 -2,390 Descending Oakland Center
Sat 07:40:03 PM 38.8647 -121.7469 229° Southwest 483 556 41,700 -2,852 Descending Oakland Center
Sat 07:41:04 PM 38.7800 -121.8703 229° Southwest 469 540 38,900 -3,000 Descending Oakland Center
Sat 07:42:05 PM 38.6817 -122.0114 228° Southwest 450 518 35,600 -2,852 Descending Oakland Center
Sat 07:43:06 PM 38.6114 -122.1136 229° Southwest 450 518 33,100 -2,878 Descending Oakland Center
Sat 07:44:08 PM 38.5106 -122.2581 228° Southwest 451 519 29,700 -3,122 Descending Oakland Center
Sat 07:45:09 PM 38.4253 -122.3797 228° Southwest 458 527 26,700 -2,951 Descending Oakland Center
Sat 07:46:10 PM 38.3381 -122.5036 228° Southwest 469 540 23,700 -2,902 Descending Oakland Center
Sat 07:47:11 PM 38.2528 -122.6236 228° Southwest 465 535 20,800 -2,852 Descending Oakland Center
Sat 07:48:12 PM 38.1719 -122.7378 228° Southwest 444 511 17,900 -2,902 Descending Oakland Center
Sat 07:49:13 PM 38.0686 -122.7672 193° South 394 453 14,900 -2,705 Descending Oakland Center
Sat 07:50:14 PM 37.9706 -122.7142 157° South 389 448 12,400 -1,951 Descending Oakland Center
Sat 07:51:16 PM 37.8636 -122.6361 150° Southeast 389 448 10,900 -732 Descending Oakland Center
Sat 07:52:17 PM 37.7850 -122.5508 139° Southeast 386 444 10,900  Level Oakland Center
Sat 07:53:18 PM 37.7192 -122.4592 132° Southeast 366 421 10,900 -98 Level Oakland Center
Sat 07:54:19 PM 37.6872 -122.3647 113° Southeast 308 354 10,700 -836 Descending Oakland Center
Sat 07:55:20 PM 37.6608 -122.2833 112° Southeast 267 307 9,200 -1,924 Descending Oakland Center
Sat 07:56:30 PM 37.6333 -122.1833 109° East 244 281 6,500 -1,610 Descending Northern Cal TRACON
Sat 07:57:23 PM 37.6078 -122.1278 120° Southeast 245 282 5,900 -600 Descending Oakland Center
Sat 07:58:30 PM 37.5500 -122.0833 149° Southeast 222 255 5,300 -843 Descending Northern Cal TRACON
Sat 07:59:24 PM 37.5333 -122.1500 253° West 209 241 4,200 -1,211 Descending Northern Cal TRACON
Sat 08:00:24 PM 37.5667 -122.2167 302° West 187 215 3,000 -1,190 Descending Northern Cal TRACON
Sat 08:01:30 PM 37.5833 -122.2667 293° West 158 182 1,700 -1,016 Descending Northern Cal TRACON
Sat 08:02:28 PM 37.5931 -122.3108 286° West 157 181 900 -756 Descending Oakland Center
Sat 08:03:29 PM 37.6111 -122.3519 299° West 141 162 200 -689 Descending Oakland Center

Login

Don't have an account? Register now (free) for customized features, flight alerts, and more!